sensor_id;sensor_type;location;lat;lon;timestamp;P1;durP1;ratioP1;P2;durP2;ratioP2
846;SDS011;410;48.954;9.474;2022-12-07T00:00:30;16.25;;;13.30;;
846;SDS011;410;48.954;9.474;2022-12-07T00:02:33;13.50;;;11.43;;
846;SDS011;410;48.954;9.474;2022-12-07T00:04:36;12.65;;;10.68;;
846;SDS011;410;48.954;9.474;2022-12-07T00:06:41;14.73;;;11.43;;
846;SDS011;410;48.954;9.474;2022-12-07T00:08:45;17.48;;;12.85;;
846;SDS011;410;48.954;9.474;2022-12-07T00:10:49;14.30;;;11.10;;
846;SDS011;410;48.954;9.474;2022-12-07T00:12:52;13.65;;;11.32;;
846;SDS011;410;48.954;9.474;2022-12-07T00:14:55;14.00;;;10.80;;
846;SDS011;410;48.954;9.474;2022-12-07T00:16:58;12.45;;;10.82;;
846;SDS011;410;48.954;9.474;2022-12-07T00:19:02;13.85;;;10.98;;
846;SDS011;410;48.954;9.474;2022-12-07T00:21:06;12.88;;;10.70;;
846;SDS011;410;48.954;9.474;2022-12-07T00:23:11;13.80;;;11.10;;
846;SDS011;410;48.954;9.474;2022-12-07T00:25:14;11.63;;;10.27;;
846;SDS011;410;48.954;9.474;2022-12-07T00:27:17;11.98;;;10.00;;
846;SDS011;410;48.954;9.474;2022-12-07T00:29:20;12.80;;;11.13;;
846;SDS011;410;48.954;9.474;2022-12-07T00:31:26;13.70;;;11.23;;
846;SDS011;410;48.954;9.474;2022-12-07T00:33:30;11.85;;;10.65;;
846;SDS011;410;48.954;9.474;2022-12-07T00:35:33;12.60;;;11.25;;
846;SDS011;410;48.954;9.474;2022-12-07T00:37:36;12.38;;;9.77;;
846;SDS011;410;48.954;9.474;2022-12-07T00:39:40;17.00;;;9.93;;
846;SDS011;410;48.954;9.474;2022-12-07T00:41:43;11.88;;;10.55;;
846;SDS011;410;48.954;9.474;2022-12-07T00:43:47;12.23;;;10.43;;
846;SDS011;410;48.954;9.474;2022-12-07T00:45:50;15.10;;;10.63;;
846;SDS011;410;48.954;9.474;2022-12-07T00:47:54;13.25;;;10.13;;
846;SDS011;410;48.954;9.474;2022-12-07T00:49:57;16.65;;;12.25;;
846;SDS011;410;48.954;9.474;2022-12-07T00:52:00;17.15;;;12.55;;
846;SDS011;410;48.954;9.474;2022-12-07T00:54:03;14.82;;;10.18;;
846;SDS011;410;48.954;9.474;2022-12-07T00:56:08;12.52;;;10.13;;
846;SDS011;410;48.954;9.474;2022-12-07T00:58:13;14.20;;;11.80;;
846;SDS011;410;48.954;9.474;2022-12-07T01:00:17;14.77;;;11.80;;
846;SDS011;410;48.954;9.474;2022-12-07T01:02:20;14.77;;;12.50;;
846;SDS011;410;48.954;9.474;2022-12-07T01:04:23;14.40;;;11.32;;
846;SDS011;410;48.954;9.474;2022-12-07T01:06:26;15.57;;;11.88;;
846;SDS011;410;48.954;9.474;2022-12-07T01:08:30;14.70;;;11.50;;
846;SDS011;410;48.954;9.474;2022-12-07T01:10:33;14.73;;;11.88;;
846;SDS011;410;48.954;9.474;2022-12-07T01:12:38;13.95;;;11.68;;
846;SDS011;410;48.954;9.474;2022-12-07T01:14:41;13.48;;;11.40;;
846;SDS011;410;48.954;9.474;2022-12-07T01:16:44;13.63;;;11.10;;
846;SDS011;410;48.954;9.474;2022-12-07T01:18:48;12.80;;;10.40;;
846;SDS011;410;48.954;9.474;2022-12-07T01:20:58;12.98;;;10.27;;
846;SDS011;410;48.954;9.474;2022-12-07T01:23:07;12.27;;;10.60;;
846;SDS011;410;48.954;9.474;2022-12-07T01:25:10;12.30;;;9.90;;
846;SDS011;410;48.954;9.474;2022-12-07T01:27:14;12.45;;;10.15;;
846;SDS011;410;48.954;9.474;2022-12-07T01:29:19;14.95;;;10.30;;
846;SDS011;410;48.954;9.474;2022-12-07T01:31:22;13.13;;;10.10;;
846;SDS011;410;48.954;9.474;2022-12-07T01:33:27;14.65;;;11.00;;
846;SDS011;410;48.954;9.474;2022-12-07T01:35:33;14.77;;;9.30;;
846;SDS011;410;48.954;9.474;2022-12-07T01:37:36;12.30;;;9.07;;
846;SDS011;410;48.954;9.474;2022-12-07T01:39:40;12.95;;;9.32;;
846;SDS011;410;48.954;9.474;2022-12-07T01:41:43;12.02;;;8.82;;
846;SDS011;410;48.954;9.474;2022-12-07T01:46:24;13.05;;;9.40;;
846;SDS011;410;48.954;9.474;2022-12-07T01:48:28;14.45;;;10.32;;
846;SDS011;410;48.954;9.474;2022-12-07T01:50:34;13.93;;;9.88;;
846;SDS011;410;48.954;9.474;2022-12-07T01:52:37;12.77;;;9.60;;
846;SDS011;410;48.954;9.474;2022-12-07T01:54:41;14.30;;;10.50;;
846;SDS011;410;48.954;9.474;2022-12-07T01:56:46;16.25;;;10.98;;
846;SDS011;410;48.954;9.474;2022-12-07T01:58:51;14.55;;;9.93;;
846;SDS011;410;48.954;9.474;2022-12-07T02:00:55;16.52;;;12.10;;
846;SDS011;410;48.954;9.474;2022-12-07T02:03:01;15.85;;;11.50;;
846;SDS011;410;48.954;9.474;2022-12-07T02:05:07;16.23;;;11.65;;
846;SDS011;410;48.954;9.474;2022-12-07T02:07:10;13.82;;;10.68;;
846;SDS011;410;48.954;9.474;2022-12-07T02:09:13;15.05;;;10.40;;
846;SDS011;410;48.954;9.474;2022-12-07T02:11:17;13.50;;;10.18;;
846;SDS011;410;48.954;9.474;2022-12-07T02:13:21;13.25;;;9.75;;
846;SDS011;410;48.954;9.474;2022-12-07T02:15:29;15.20;;;10.02;;
846;SDS011;410;48.954;9.474;2022-12-07T02:17:47;13.43;;;10.13;;
846;SDS011;410;48.954;9.474;2022-12-07T02:20:00;13.43;;;9.70;;
846;SDS011;410;48.954;9.474;2022-12-07T02:22:14;14.10;;;9.63;;
846;SDS011;410;48.954;9.474;2022-12-07T02:24:30;14.90;;;9.52;;
846;SDS011;410;48.954;9.474;2022-12-07T02:26:51;13.60;;;9.32;;
846;SDS011;410;48.954;9.474;2022-12-07T02:29:16;12.55;;;9.35;;
846;SDS011;410;48.954;9.474;2022-12-07T02:31:22;12.77;;;9.30;;
846;SDS011;410;48.954;9.474;2022-12-07T02:33:28;12.50;;;9.10;;
846;SDS011;410;48.954;9.474;2022-12-07T02:35:37;12.63;;;8.52;;
846;SDS011;410;48.954;9.474;2022-12-07T02:37:43;16.83;;;10.60;;
846;SDS011;410;48.954;9.474;2022-12-07T02:39:55;12.60;;;8.57;;
846;SDS011;410;48.954;9.474;2022-12-07T02:42:02;12.18;;;9.20;;
846;SDS011;410;48.954;9.474;2022-12-07T02:44:11;13.68;;;9.52;;
846;SDS011;410;48.954;9.474;2022-12-07T02:46:18;13.75;;;9.70;;
846;SDS011;410;48.954;9.474;2022-12-07T02:48:24;14.02;;;9.63;;
846;SDS011;410;48.954;9.474;2022-12-07T02:50:27;14.27;;;10.00;;
846;SDS011;410;48.954;9.474;2022-12-07T02:52:31;15.38;;;10.15;;
846;SDS011;410;48.954;9.474;2022-12-07T02:54:34;15.52;;;9.90;;
846;SDS011;410;48.954;9.474;2022-12-07T02:56:39;11.82;;;8.85;;
846;SDS011;410;48.954;9.474;2022-12-07T02:58:50;15.13;;;10.15;;
846;SDS011;410;48.954;9.474;2022-12-07T03:00:59;13.45;;;9.43;;
846;SDS011;410;48.954;9.474;2022-12-07T03:03:10;13.35;;;9.10;;
846;SDS011;410;48.954;9.474;2022-12-07T03:05:20;13.23;;;9.35;;
846;SDS011;410;48.954;9.474;2022-12-07T03:07:32;13.93;;;10.02;;
846;SDS011;410;48.954;9.474;2022-12-07T03:09:41;12.90;;;9.15;;
846;SDS011;410;48.954;9.474;2022-12-07T03:11:47;12.55;;;9.65;;
846;SDS011;410;48.954;9.474;2022-12-07T03:13:54;12.68;;;9.00;;
846;SDS011;410;48.954;9.474;2022-12-07T03:16:02;13.02;;;9.30;;
846;SDS011;410;48.954;9.474;2022-12-07T03:18:10;11.18;;;8.82;;
846;SDS011;410;48.954;9.474;2022-12-07T03:20:16;13.75;;;9.38;;
846;SDS011;410;48.954;9.474;2022-12-07T03:22:21;11.55;;;8.18;;
846;SDS011;410;48.954;9.474;2022-12-07T03:24:26;11.00;;;8.40;;
846;SDS011;410;48.954;9.474;2022-12-07T03:26:31;12.13;;;8.82;;
846;SDS011;410;48.954;9.474;2022-12-07T03:28:37;12.45;;;9.20;;
846;SDS011;410;48.954;9.474;2022-12-07T03:30:44;12.15;;;9.15;;
846;SDS011;410;48.954;9.474;2022-12-07T03:32:50;12.77;;;8.73;;
846;SDS011;410;48.954;9.474;2022-12-07T03:34:59;14.30;;;9.57;;
846;SDS011;410;48.954;9.474;2022-12-07T03:37:07;17.63;;;9.70;;
846;SDS011;410;48.954;9.474;2022-12-07T03:39:15;11.90;;;9.20;;
846;SDS011;410;48.954;9.474;2022-12-07T03:41:22;13.43;;;9.40;;
846;SDS011;410;48.954;9.474;2022-12-07T03:43:27;12.27;;;8.70;;
846;SDS011;410;48.954;9.474;2022-12-07T03:45:32;13.80;;;9.35;;
846;SDS011;410;48.954;9.474;2022-12-07T03:47:42;11.98;;;8.88;;
846;SDS011;410;48.954;9.474;2022-12-07T03:49:49;14.52;;;8.90;;
846;SDS011;410;48.954;9.474;2022-12-07T03:51:56;11.85;;;8.60;;
846;SDS011;410;48.954;9.474;2022-12-07T03:54:05;11.73;;;8.65;;
846;SDS011;410;48.954;9.474;2022-12-07T03:56:12;12.55;;;9.10;;
846;SDS011;410;48.954;9.474;2022-12-07T03:58:16;12.63;;;9.50;;
846;SDS011;410;48.954;9.474;2022-12-07T04:00:20;14.18;;;9.85;;
846;SDS011;410;48.954;9.474;2022-12-07T04:02:24;12.88;;;9.68;;
846;SDS011;410;48.954;9.474;2022-12-07T04:04:28;12.35;;;9.68;;
846;SDS011;410;48.954;9.474;2022-12-07T04:06:31;13.10;;;9.63;;
846;SDS011;410;48.954;9.474;2022-12-07T04:08:35;13.77;;;9.40;;
846;SDS011;410;48.954;9.474;2022-12-07T04:10:38;13.30;;;9.95;;
846;SDS011;410;48.954;9.474;2022-12-07T04:12:41;13.55;;;10.07;;
846;SDS011;410;48.954;9.474;2022-12-07T04:14:44;13.63;;;9.77;;
846;SDS011;410;48.954;9.474;2022-12-07T04:16:47;12.55;;;9.48;;
846;SDS011;410;48.954;9.474;2022-12-07T04:18:52;16.45;;;10.20;;
846;SDS011;410;48.954;9.474;2022-12-07T04:20:55;14.00;;;9.85;;
846;SDS011;410;48.954;9.474;2022-12-07T04:22:58;15.50;;;9.65;;
846;SDS011;410;48.954;9.474;2022-12-07T04:25:03;13.52;;;10.30;;
846;SDS011;410;48.954;9.474;2022-12-07T04:27:07;10.90;;;8.52;;
846;SDS011;410;48.954;9.474;2022-12-07T04:29:10;12.52;;;9.98;;
846;SDS011;410;48.954;9.474;2022-12-07T04:31:14;10.93;;;8.90;;
846;SDS011;410;48.954;9.474;2022-12-07T04:33:17;12.18;;;9.13;;
846;SDS011;410;48.954;9.474;2022-12-07T04:35:20;13.45;;;10.02;;
846;SDS011;410;48.954;9.474;2022-12-07T04:37:23;11.90;;;8.43;;
846;SDS011;410;48.954;9.474;2022-12-07T04:39:27;15.05;;;10.57;;
846;SDS011;410;48.954;9.474;2022-12-07T04:41:32;14.40;;;9.80;;
846;SDS011;410;48.954;9.474;2022-12-07T04:43:35;11.52;;;8.75;;
846;SDS011;410;48.954;9.474;2022-12-07T04:45:38;13.63;;;10.57;;
846;SDS011;410;48.954;9.474;2022-12-07T04:47:41;15.25;;;11.88;;
846;SDS011;410;48.954;9.474;2022-12-07T04:49:44;15.13;;;11.10;;
846;SDS011;410;48.954;9.474;2022-12-07T04:51:47;15.15;;;11.48;;
846;SDS011;410;48.954;9.474;2022-12-07T04:53:50;13.10;;;10.45;;
846;SDS011;410;48.954;9.474;2022-12-07T04:55:53;13.90;;;10.90;;
846;SDS011;410;48.954;9.474;2022-12-07T04:57:58;12.65;;;10.13;;
846;SDS011;410;48.954;9.474;2022-12-07T05:00:01;14.57;;;10.52;;
846;SDS011;410;48.954;9.474;2022-12-07T05:02:05;14.48;;;10.48;;
846;SDS011;410;48.954;9.474;2022-12-07T05:04:09;12.05;;;9.20;;
846;SDS011;410;48.954;9.474;2022-12-07T05:06:13;13.32;;;10.63;;
846;SDS011;410;48.954;9.474;2022-12-07T05:08:16;11.23;;;9.43;;
846;SDS011;410;48.954;9.474;2022-12-07T05:10:19;13.70;;;10.18;;
846;SDS011;410;48.954;9.474;2022-12-07T05:12:22;14.63;;;10.13;;
846;SDS011;410;48.954;9.474;2022-12-07T05:14:27;16.52;;;9.70;;
846;SDS011;410;48.954;9.474;2022-12-07T05:16:30;13.23;;;9.50;;
846;SDS011;410;48.954;9.474;2022-12-07T05:18:33;14.00;;;9.70;;
846;SDS011;410;48.954;9.474;2022-12-07T05:20:36;11.90;;;8.65;;
846;SDS011;410;48.954;9.474;2022-12-07T05:22:43;13.75;;;9.30;;
846;SDS011;410;48.954;9.474;2022-12-07T05:24:46;11.73;;;8.65;;
846;SDS011;410;48.954;9.474;2022-12-07T05:26:49;12.60;;;9.80;;
846;SDS011;410;48.954;9.474;2022-12-07T05:28:53;11.88;;;9.02;;
846;SDS011;410;48.954;9.474;2022-12-07T05:30:57;13.18;;;9.48;;
846;SDS011;410;48.954;9.474;2022-12-07T05:33:00;13.27;;;8.95;;
846;SDS011;410;48.954;9.474;2022-12-07T05:35:06;11.82;;;8.88;;
846;SDS011;410;48.954;9.474;2022-12-07T05:37:10;11.15;;;9.10;;
846;SDS011;410;48.954;9.474;2022-12-07T05:39:13;12.82;;;9.55;;
846;SDS011;410;48.954;9.474;2022-12-07T05:41:17;12.75;;;9.32;;
846;SDS011;410;48.954;9.474;2022-12-07T05:43:49;16.20;;;9.55;;
846;SDS011;410;48.954;9.474;2022-12-07T05:45:53;11.57;;;8.70;;
846;SDS011;410;48.954;9.474;2022-12-07T05:47:57;14.77;;;9.70;;
846;SDS011;410;48.954;9.474;2022-12-07T05:50:00;14.95;;;11.77;;
846;SDS011;410;48.954;9.474;2022-12-07T05:52:04;16.02;;;10.55;;
846;SDS011;410;48.954;9.474;2022-12-07T05:54:07;14.63;;;9.65;;
846;SDS011;410;48.954;9.474;2022-12-07T05:56:10;16.98;;;9.88;;
846;SDS011;410;48.954;9.474;2022-12-07T05:58:13;12.75;;;9.52;;
846;SDS011;410;48.954;9.474;2022-12-07T06:00:34;17.50;;;11.18;;
846;SDS011;410;48.954;9.474;2022-12-07T06:02:37;16.15;;;11.85;;
846;SDS011;410;48.954;9.474;2022-12-07T06:04:43;16.02;;;12.90;;
846;SDS011;410;48.954;9.474;2022-12-07T06:06:47;16.30;;;12.43;;
846;SDS011;410;48.954;9.474;2022-12-07T06:08:50;15.55;;;11.57;;
846;SDS011;410;48.954;9.474;2022-12-07T06:10:53;13.85;;;10.50;;
846;SDS011;410;48.954;9.474;2022-12-07T06:13:10;14.68;;;10.90;;
846;SDS011;410;48.954;9.474;2022-12-07T06:15:13;14.75;;;11.00;;
846;SDS011;410;48.954;9.474;2022-12-07T06:17:16;14.55;;;9.73;;
846;SDS011;410;48.954;9.474;2022-12-07T06:19:19;13.80;;;10.48;;
846;SDS011;410;48.954;9.474;2022-12-07T06:21:24;17.30;;;11.32;;
846;SDS011;410;48.954;9.474;2022-12-07T06:23:28;14.25;;;9.90;;
846;SDS011;410;48.954;9.474;2022-12-07T06:25:31;14.65;;;10.32;;
846;SDS011;410;48.954;9.474;2022-12-07T06:27:34;13.30;;;10.38;;
846;SDS011;410;48.954;9.474;2022-12-07T06:29:37;14.75;;;9.85;;
846;SDS011;410;48.954;9.474;2022-12-07T06:31:40;12.20;;;9.13;;
846;SDS011;410;48.954;9.474;2022-12-07T06:33:44;14.20;;;9.70;;
846;SDS011;410;48.954;9.474;2022-12-07T06:35:47;12.45;;;9.75;;
846;SDS011;410;48.954;9.474;2022-12-07T06:37:51;12.52;;;9.30;;
846;SDS011;410;48.954;9.474;2022-12-07T06:39:54;16.20;;;10.02;;
846;SDS011;410;48.954;9.474;2022-12-07T06:41:57;14.88;;;10.45;;
846;SDS011;410;48.954;9.474;2022-12-07T06:44:01;13.77;;;9.18;;
846;SDS011;410;48.954;9.474;2022-12-07T06:46:05;15.23;;;9.88;;
846;SDS011;410;48.954;9.474;2022-12-07T06:48:08;16.58;;;9.90;;
846;SDS011;410;48.954;9.474;2022-12-07T06:50:11;11.88;;;9.25;;
846;SDS011;410;48.954;9.474;2022-12-07T06:52:14;13.10;;;9.20;;
846;SDS011;410;48.954;9.474;2022-12-07T06:54:19;13.18;;;9.80;;
846;SDS011;410;48.954;9.474;2022-12-07T06:56:22;11.23;;;8.77;;
846;SDS011;410;48.954;9.474;2022-12-07T06:58:25;15.07;;;10.18;;
846;SDS011;410;48.954;9.474;2022-12-07T07:00:28;11.35;;;8.82;;
846;SDS011;410;48.954;9.474;2022-12-07T07:02:31;12.60;;;9.45;;
846;SDS011;410;48.954;9.474;2022-12-07T07:04:34;13.38;;;9.48;;
846;SDS011;410;48.954;9.474;2022-12-07T07:06:37;14.75;;;9.82;;
846;SDS011;410;48.954;9.474;2022-12-07T07:08:41;14.18;;;10.02;;
846;SDS011;410;48.954;9.474;2022-12-07T07:10:45;13.48;;;9.48;;
846;SDS011;410;48.954;9.474;2022-12-07T07:12:48;12.80;;;8.45;;
846;SDS011;410;48.954;9.474;2022-12-07T07:14:57;12.50;;;8.85;;
846;SDS011;410;48.954;9.474;2022-12-07T07:17:00;14.18;;;9.02;;
846;SDS011;410;48.954;9.474;2022-12-07T07:19:03;16.42;;;8.90;;
846;SDS011;410;48.954;9.474;2022-12-07T07:21:06;12.80;;;8.82;;
846;SDS011;410;48.954;9.474;2022-12-07T07:23:10;15.18;;;11.40;;
846;SDS011;410;48.954;9.474;2022-12-07T07:25:13;14.80;;;10.10;;
846;SDS011;410;48.954;9.474;2022-12-07T07:27:17;14.65;;;10.95;;
846;SDS011;410;48.954;9.474;2022-12-07T07:29:20;14.93;;;9.38;;
846;SDS011;410;48.954;9.474;2022-12-07T07:31:23;11.10;;;8.45;;
846;SDS011;410;48.954;9.474;2022-12-07T07:33:26;16.52;;;9.55;;
846;SDS011;410;48.954;9.474;2022-12-07T07:35:30;15.13;;;11.23;;
846;SDS011;410;48.954;9.474;2022-12-07T07:37:34;14.30;;;10.00;;
846;SDS011;410;48.954;9.474;2022-12-07T07:39:37;12.77;;;9.13;;
846;SDS011;410;48.954;9.474;2022-12-07T07:41:40;13.95;;;8.50;;
846;SDS011;410;48.954;9.474;2022-12-07T07:43:48;12.52;;;9.38;;
846;SDS011;410;48.954;9.474;2022-12-07T07:45:51;15.70;;;8.95;;
846;SDS011;410;48.954;9.474;2022-12-07T07:47:55;13.40;;;9.40;;
846;SDS011;410;48.954;9.474;2022-12-07T07:49:59;15.50;;;9.43;;
846;SDS011;410;48.954;9.474;2022-12-07T07:52:03;11.38;;;8.52;;
846;SDS011;410;48.954;9.474;2022-12-07T07:54:07;13.23;;;9.15;;
846;SDS011;410;48.954;9.474;2022-12-07T07:56:10;13.90;;;9.60;;
846;SDS011;410;48.954;9.474;2022-12-07T07:58:13;14.80;;;10.45;;
846;SDS011;410;48.954;9.474;2022-12-07T08:00:18;13.55;;;8.35;;
846;SDS011;410;48.954;9.474;2022-12-07T08:02:21;13.45;;;8.30;;
846;SDS011;410;48.954;9.474;2022-12-07T08:04:24;12.98;;;8.27;;
846;SDS011;410;48.954;9.474;2022-12-07T08:06:28;13.10;;;9.32;;
846;SDS011;410;48.954;9.474;2022-12-07T08:08:33;14.20;;;9.07;;
846;SDS011;410;48.954;9.474;2022-12-07T08:10:36;16.40;;;11.25;;
846;SDS011;410;48.954;9.474;2022-12-07T08:12:40;15.90;;;10.50;;
846;SDS011;410;48.954;9.474;2022-12-07T08:14:58;17.52;;;10.27;;
846;SDS011;410;48.954;9.474;2022-12-07T08:17:02;12.40;;;9.35;;
846;SDS011;410;48.954;9.474;2022-12-07T08:19:05;12.90;;;9.40;;
846;SDS011;410;48.954;9.474;2022-12-07T08:21:09;14.93;;;9.30;;
846;SDS011;410;48.954;9.474;2022-12-07T08:23:14;12.20;;;9.02;;
846;SDS011;410;48.954;9.474;2022-12-07T08:25:17;14.73;;;10.65;;
846;SDS011;410;48.954;9.474;2022-12-07T08:27:20;14.02;;;10.40;;
846;SDS011;410;48.954;9.474;2022-12-07T08:29:28;17.27;;;10.82;;
846;SDS011;410;48.954;9.474;2022-12-07T08:31:31;19.23;;;10.40;;
846;SDS011;410;48.954;9.474;2022-12-07T08:33:36;14.57;;;10.48;;
846;SDS011;410;48.954;9.474;2022-12-07T08:35:39;16.55;;;12.52;;
846;SDS011;410;48.954;9.474;2022-12-07T08:37:42;13.18;;;9.63;;
846;SDS011;410;48.954;9.474;2022-12-07T08:39:45;12.88;;;9.77;;
846;SDS011;410;48.954;9.474;2022-12-07T08:41:48;12.48;;;9.50;;
846;SDS011;410;48.954;9.474;2022-12-07T08:43:51;14.63;;;10.02;;
846;SDS011;410;48.954;9.474;2022-12-07T08:45:56;13.65;;;9.57;;
846;SDS011;410;48.954;9.474;2022-12-07T08:48:07;14.20;;;9.75;;
846;SDS011;410;48.954;9.474;2022-12-07T08:50:13;13.85;;;9.00;;
846;SDS011;410;48.954;9.474;2022-12-07T08:52:16;13.70;;;9.13;;
846;SDS011;410;48.954;9.474;2022-12-07T08:54:20;11.75;;;8.90;;
846;SDS011;410;48.954;9.474;2022-12-07T08:56:23;15.02;;;11.45;;
846;SDS011;410;48.954;9.474;2022-12-07T08:58:26;15.20;;;9.75;;
846;SDS011;410;48.954;9.474;2022-12-07T09:00:29;17.88;;;11.27;;
846;SDS011;410;48.954;9.474;2022-12-07T09:02:33;17.98;;;11.68;;
846;SDS011;410;48.954;9.474;2022-12-07T09:04:36;15.13;;;10.90;;
846;SDS011;410;48.954;9.474;2022-12-07T09:06:40;13.88;;;9.57;;
846;SDS011;410;48.954;9.474;2022-12-07T09:08:46;13.60;;;9.55;;
846;SDS011;410;48.954;9.474;2022-12-07T09:10:49;14.20;;;9.63;;
846;SDS011;410;48.954;9.474;2022-12-07T09:12:52;12.90;;;8.55;;
846;SDS011;410;48.954;9.474;2022-12-07T09:14:56;12.30;;;8.50;;
846;SDS011;410;48.954;9.474;2022-12-07T09:17:04;12.30;;;8.82;;
846;SDS011;410;48.954;9.474;2022-12-07T09:19:08;12.07;;;7.70;;
846;SDS011;410;48.954;9.474;2022-12-07T09:21:11;11.95;;;7.68;;
846;SDS011;410;48.954;9.474;2022-12-07T09:23:15;33.13;;;21.65;;
846;SDS011;410;48.954;9.474;2022-12-07T09:25:19;17.25;;;9.95;;
846;SDS011;410;48.954;9.474;2022-12-07T09:27:22;17.80;;;11.20;;
846;SDS011;410;48.954;9.474;2022-12-07T09:29:25;14.60;;;10.80;;
846;SDS011;410;48.954;9.474;2022-12-07T09:31:28;17.10;;;8.90;;
846;SDS011;410;48.954;9.474;2022-12-07T09:33:31;13.38;;;8.30;;
846;SDS011;410;48.954;9.474;2022-12-07T09:35:35;12.27;;;8.25;;
846;SDS011;410;48.954;9.474;2022-12-07T09:37:38;11.85;;;8.43;;
846;SDS011;410;48.954;9.474;2022-12-07T09:39:42;17.30;;;10.98;;
846;SDS011;410;48.954;9.474;2022-12-07T09:41:51;13.38;;;9.35;;
846;SDS011;410;48.954;9.474;2022-12-07T09:43:55;12.00;;;8.30;;
846;SDS011;410;48.954;9.474;2022-12-07T09:46:05;14.23;;;9.55;;
846;SDS011;410;48.954;9.474;2022-12-07T09:48:11;10.70;;;7.72;;
846;SDS011;410;48.954;9.474;2022-12-07T09:50:20;11.85;;;7.93;;
846;SDS011;410;48.954;9.474;2022-12-07T09:52:30;14.02;;;8.40;;
846;SDS011;410;48.954;9.474;2022-12-07T09:54:40;13.30;;;9.20;;
846;SDS011;410;48.954;9.474;2022-12-07T09:56:46;17.20;;;8.60;;
846;SDS011;410;48.954;9.474;2022-12-07T09:58:50;14.13;;;9.05;;
846;SDS011;410;48.954;9.474;2022-12-07T10:00:55;12.02;;;7.47;;
846;SDS011;410;48.954;9.474;2022-12-07T10:03:00;9.30;;;7.40;;
846;SDS011;410;48.954;9.474;2022-12-07T10:05:06;12.23;;;8.15;;
846;SDS011;410;48.954;9.474;2022-12-07T10:07:09;11.27;;;8.20;;
846;SDS011;410;48.954;9.474;2022-12-07T10:09:13;17.55;;;8.70;;
846;SDS011;410;48.954;9.474;2022-12-07T10:11:19;12.15;;;7.80;;
846;SDS011;410;48.954;9.474;2022-12-07T10:13:33;12.88;;;7.82;;
846;SDS011;410;48.954;9.474;2022-12-07T10:15:40;12.52;;;8.10;;
846;SDS011;410;48.954;9.474;2022-12-07T10:17:47;12.20;;;8.23;;
846;SDS011;410;48.954;9.474;2022-12-07T10:19:51;10.40;;;8.15;;
846;SDS011;410;48.954;9.474;2022-12-07T10:22:01;12.70;;;8.10;;
846;SDS011;410;48.954;9.474;2022-12-07T10:24:13;12.85;;;8.55;;
846;SDS011;410;48.954;9.474;2022-12-07T10:26:21;14.35;;;9.10;;
846;SDS011;410;48.954;9.474;2022-12-07T10:28:34;13.02;;;8.40;;
846;SDS011;410;48.954;9.474;2022-12-07T10:30:50;13.15;;;8.98;;
846;SDS011;410;48.954;9.474;2022-12-07T10:32:59;13.68;;;8.85;;
846;SDS011;410;48.954;9.474;2022-12-07T10:35:18;13.73;;;9.18;;
846;SDS011;410;48.954;9.474;2022-12-07T10:37:23;13.90;;;9.82;;
846;SDS011;410;48.954;9.474;2022-12-07T10:39:29;17.90;;;10.27;;
846;SDS011;410;48.954;9.474;2022-12-07T10:41:53;13.43;;;8.40;;
846;SDS011;410;48.954;9.474;2022-12-07T10:43:58;13.35;;;8.45;;
846;SDS011;410;48.954;9.474;2022-12-07T10:46:07;13.88;;;8.52;;
846;SDS011;410;48.954;9.474;2022-12-07T10:48:29;12.10;;;7.90;;
846;SDS011;410;48.954;9.474;2022-12-07T10:50:42;12.90;;;8.75;;
846;SDS011;410;48.954;9.474;2022-12-07T10:52:57;13.80;;;9.00;;
846;SDS011;410;48.954;9.474;2022-12-07T10:55:19;8.80;;;7.03;;
846;SDS011;410;48.954;9.474;2022-12-07T10:57:30;9.88;;;7.20;;
846;SDS011;410;48.954;9.474;2022-12-07T10:59:42;10.07;;;6.90;;
846;SDS011;410;48.954;9.474;2022-12-07T11:01:57;8.25;;;6.63;;
846;SDS011;410;48.954;9.474;2022-12-07T11:04:18;9.88;;;6.60;;
846;SDS011;410;48.954;9.474;2022-12-07T11:06:26;12.82;;;7.20;;
846;SDS011;410;48.954;9.474;2022-12-07T11:08:39;8.50;;;6.32;;
846;SDS011;410;48.954;9.474;2022-12-07T11:10:50;6.90;;;5.03;;
846;SDS011;410;48.954;9.474;2022-12-07T11:13:04;8.95;;;5.80;;
846;SDS011;410;48.954;9.474;2022-12-07T11:15:17;10.48;;;5.45;;
846;SDS011;410;48.954;9.474;2022-12-07T11:17:23;8.30;;;5.53;;
846;SDS011;410;48.954;9.474;2022-12-07T11:19:32;8.02;;;5.80;;
846;SDS011;410;48.954;9.474;2022-12-07T11:21:54;7.75;;;5.47;;
846;SDS011;410;48.954;9.474;2022-12-07T11:24:01;10.80;;;5.93;;
846;SDS011;410;48.954;9.474;2022-12-07T11:26:07;8.27;;;5.38;;
846;SDS011;410;48.954;9.474;2022-12-07T11:28:20;7.15;;;5.50;;
846;SDS011;410;48.954;9.474;2022-12-07T11:30:29;9.20;;;6.78;;
846;SDS011;410;48.954;9.474;2022-12-07T11:35:04;9.40;;;5.38;;
846;SDS011;410;48.954;9.474;2022-12-07T11:37:12;8.95;;;5.20;;
846;SDS011;410;48.954;9.474;2022-12-07T11:39:20;10.82;;;5.50;;
846;SDS011;410;48.954;9.474;2022-12-07T11:41:28;8.50;;;5.75;;
846;SDS011;410;48.954;9.474;2022-12-07T11:43:34;8.90;;;5.85;;
846;SDS011;410;48.954;9.474;2022-12-07T11:45:40;7.85;;;5.13;;
846;SDS011;410;48.954;9.474;2022-12-07T11:47:45;8.45;;;5.80;;
846;SDS011;410;48.954;9.474;2022-12-07T11:49:51;11.02;;;5.40;;
846;SDS011;410;48.954;9.474;2022-12-07T11:51:57;8.23;;;6.15;;
846;SDS011;410;48.954;9.474;2022-12-07T11:54:02;9.88;;;6.88;;
846;SDS011;410;48.954;9.474;2022-12-07T11:56:08;10.27;;;7.00;;
846;SDS011;410;48.954;9.474;2022-12-07T11:58:26;10.35;;;6.63;;
846;SDS011;410;48.954;9.474;2022-12-07T12:00:38;8.00;;;5.63;;
846;SDS011;410;48.954;9.474;2022-12-07T12:02:43;9.55;;;6.45;;
846;SDS011;410;48.954;9.474;2022-12-07T12:04:49;10.15;;;6.25;;
846;SDS011;410;48.954;9.474;2022-12-07T12:06:54;9.43;;;7.13;;
846;SDS011;410;48.954;9.474;2022-12-07T12:09:00;11.52;;;6.88;;
846;SDS011;410;48.954;9.474;2022-12-07T12:11:34;11.15;;;7.05;;
846;SDS011;410;48.954;9.474;2022-12-07T12:16:42;9.65;;;6.65;;
846;SDS011;410;48.954;9.474;2022-12-07T12:19:21;10.93;;;6.43;;
846;SDS011;410;48.954;9.474;2022-12-07T12:21:28;10.52;;;6.97;;
846;SDS011;410;48.954;9.474;2022-12-07T12:23:35;10.57;;;6.75;;
846;SDS011;410;48.954;9.474;2022-12-07T12:25:40;16.48;;;7.10;;
846;SDS011;410;48.954;9.474;2022-12-07T12:27:45;7.95;;;6.50;;
846;SDS011;410;48.954;9.474;2022-12-07T12:29:53;13.98;;;6.95;;
846;SDS011;410;48.954;9.474;2022-12-07T12:32:07;11.45;;;8.15;;
846;SDS011;410;48.954;9.474;2022-12-07T12:34:32;11.75;;;7.32;;
846;SDS011;410;48.954;9.474;2022-12-07T12:36:44;14.35;;;7.35;;
846;SDS011;410;48.954;9.474;2022-12-07T12:38:49;11.57;;;7.50;;
846;SDS011;410;48.954;9.474;2022-12-07T12:40:53;13.25;;;7.97;;
846;SDS011;410;48.954;9.474;2022-12-07T12:42:56;12.20;;;7.97;;
846;SDS011;410;48.954;9.474;2022-12-07T12:50:15;11.52;;;8.05;;
846;SDS011;410;48.954;9.474;2022-12-07T12:54:58;14.02;;;8.60;;
846;SDS011;410;48.954;9.474;2022-12-07T12:57:04;18.15;;;9.98;;
846;SDS011;410;48.954;9.474;2022-12-07T12:59:26;16.60;;;10.57;;
846;SDS011;410;48.954;9.474;2022-12-07T13:01:44;17.63;;;10.77;;
846;SDS011;410;48.954;9.474;2022-12-07T13:03:51;14.55;;;9.60;;
846;SDS011;410;48.954;9.474;2022-12-07T13:08:20;11.15;;;7.70;;
846;SDS011;410;48.954;9.474;2022-12-07T13:10:28;13.85;;;8.82;;
846;SDS011;410;48.954;9.474;2022-12-07T13:12:40;12.57;;;8.80;;
846;SDS011;410;48.954;9.474;2022-12-07T13:20:06;15.65;;;8.98;;
846;SDS011;410;48.954;9.474;2022-12-07T13:24:54;14.38;;;8.88;;
846;SDS011;410;48.954;9.474;2022-12-07T13:26:58;13.52;;;9.60;;
846;SDS011;410;48.954;9.474;2022-12-07T13:29:05;13.73;;;9.57;;
846;SDS011;410;48.954;9.474;2022-12-07T13:31:19;16.40;;;9.05;;
846;SDS011;410;48.954;9.474;2022-12-07T13:33:28;13.27;;;8.40;;
846;SDS011;410;48.954;9.474;2022-12-07T13:35:33;15.07;;;9.23;;
846;SDS011;410;48.954;9.474;2022-12-07T13:37:39;12.90;;;8.40;;
846;SDS011;410;48.954;9.474;2022-12-07T13:39:44;13.65;;;8.50;;